createdAt,value
2022-09-03T00:00:02.342Z,37.39
2022-09-03T00:01:02.332Z,38.09
2022-09-03T00:02:02.376Z,36.99
2022-09-03T00:03:02.395Z,37.02
2022-09-03T00:04:02.318Z,37.29
2022-09-03T00:05:02.306Z,38.14
2022-09-03T00:06:02.311Z,38.08
2022-09-03T00:07:02.304Z,38.80
2022-09-03T00:08:02.319Z,39.03
2022-09-03T00:09:02.282Z,38.08
2022-09-03T00:10:02.276Z,38.08
2022-09-03T00:11:02.276Z,37.36
2022-09-03T00:12:02.273Z,37.86
2022-09-03T00:13:02.268Z,37.77
2022-09-03T00:14:02.253Z,37.22
2022-09-03T00:15:02.244Z,37.05
2022-09-03T00:16:02.316Z,37.71
2022-09-03T00:17:02.227Z,37.93
2022-09-03T00:18:02.235Z,37.35
2022-09-03T00:19:02.217Z,38.28
2022-09-03T00:20:02.214Z,38.59
2022-09-03T00:21:02.192Z,37.95
2022-09-03T00:22:02.192Z,37.88
2022-09-03T00:23:02.190Z,37.74
2022-09-03T00:24:02.180Z,37.41
2022-09-03T00:25:02.171Z,37.26
2022-09-03T00:26:02.158Z,37.45
2022-09-03T00:27:02.157Z,38.63
2022-09-03T00:28:02.162Z,39.49
2022-09-03T00:29:02.162Z,38.96
2022-09-03T00:30:02.134Z,38.10
2022-09-03T00:31:02.211Z,37.76
2022-09-03T00:32:02.117Z,37.63
2022-09-03T00:33:02.129Z,38.39
2022-09-03T00:34:02.117Z,38.17
2022-09-03T00:35:02.099Z,37.62
2022-09-03T00:36:02.090Z,37.46
2022-09-03T00:37:02.093Z,37.29
2022-09-03T00:38:02.094Z,37.23
2022-09-03T00:39:02.056Z,37.23
2022-09-03T00:40:02.122Z,37.44
2022-09-03T00:41:02.058Z,38.36
2022-09-03T00:42:02.038Z,39.30
2022-09-03T00:43:02.091Z,38.31
2022-09-03T00:44:02.027Z,38.56
2022-09-03T00:45:02.023Z,39.87
2022-09-03T00:46:02.109Z,37.85
2022-09-03T00:47:03.015Z,39.01
2022-09-03T00:48:02.023Z,38.19
2022-09-03T00:49:01.990Z,37.35
2022-09-03T00:50:02.021Z,37.58
2022-09-03T00:51:01.973Z,38.90
2022-09-03T00:52:01.977Z,39.01
2022-09-03T00:53:02.000Z,38.27
2022-09-03T00:54:01.961Z,38.48
2022-09-03T00:55:01.962Z,38.64
2022-09-03T00:56:01.952Z,37.85
2022-09-03T00:57:01.961Z,37.80
2022-09-03T00:58:01.974Z,37.71
2022-09-03T00:59:01.938Z,38.37
2022-09-03T01:00:01.915Z,39.50
2022-09-03T01:01:01.908Z,38.86
2022-09-03T01:02:01.976Z,37.93
2022-09-03T01:03:01.921Z,37.73
2022-09-03T01:04:01.884Z,37.69
2022-09-03T01:05:01.880Z,37.95
2022-09-03T01:06:02.146Z,38.52
2022-09-03T01:07:01.871Z,37.82
2022-09-03T01:08:01.888Z,38.03
2022-09-03T01:09:01.856Z,38.35
2022-09-03T01:10:01.857Z,37.79
2022-09-03T01:11:01.897Z,38.05
2022-09-03T01:12:01.834Z,38.52
2022-09-03T01:13:01.837Z,37.54
2022-09-03T01:14:01.834Z,37.62
2022-09-03T01:15:01.835Z,38.70
2022-09-03T01:16:01.880Z,39.29
2022-09-03T01:17:01.812Z,37.69
2022-09-03T01:18:01.816Z,37.55
2022-09-03T01:19:01.777Z,38.32
2022-09-03T01:20:01.799Z,38.43
2022-09-03T01:21:01.778Z,38.55
2022-09-03T01:22:01.765Z,37.65
2022-09-03T01:23:01.789Z,38.06
2022-09-03T01:24:01.742Z,42.42
2022-09-03T01:25:01.758Z,37.80
2022-09-03T01:26:01.763Z,38.37
2022-09-03T01:27:01.735Z,41.80
2022-09-03T01:28:01.742Z,40.55
2022-09-03T01:29:01.713Z,38.50
2022-09-03T01:30:01.717Z,39.50
2022-09-03T01:31:01.765Z,38.08
2022-09-03T01:32:01.695Z,38.78
2022-09-03T01:33:01.724Z,37.74
2022-09-03T01:34:01.695Z,38.75
2022-09-03T01:35:01.706Z,38.53
2022-09-03T01:36:01.709Z,40.08
2022-09-03T01:37:01.688Z,37.44
2022-09-03T01:38:01.676Z,38.06
2022-09-03T01:39:01.648Z,38.71
2022-09-03T01:40:01.731Z,39.20
2022-09-03T01:41:01.647Z,37.72
2022-09-03T01:42:01.640Z,38.82
2022-09-03T01:43:01.637Z,38.27
2022-09-03T01:44:01.612Z,38.58
2022-09-03T01:45:01.610Z,37.72
2022-09-03T01:46:01.671Z,38.01
2022-09-03T01:47:01.596Z,38.38
2022-09-03T01:48:01.673Z,38.74
2022-09-03T01:49:01.604Z,38.94
2022-09-03T01:50:01.590Z,38.60
2022-09-03T01:51:01.575Z,38.56
2022-09-03T01:52:01.579Z,38.27
2022-09-03T01:53:01.569Z,38.05
2022-09-03T01:54:01.552Z,40.43
2022-09-03T01:55:01.566Z,38.40
2022-09-03T01:56:01.544Z,40.84
2022-09-03T01:57:01.517Z,39.72
2022-09-03T01:58:01.548Z,37.96
2022-09-03T01:59:01.517Z,37.80
2022-09-03T02:00:01.523Z,38.07
2022-09-03T02:01:01.497Z,39.86
2022-09-03T02:02:02.582Z,37.97
2022-09-03T02:03:01.536Z,37.94
2022-09-03T02:04:01.483Z,38.80
2022-09-03T02:05:01.480Z,38.27
2022-09-03T02:06:01.464Z,40.79
2022-09-03T02:07:01.462Z,40.49
2022-09-03T02:08:01.576Z,39.45
2022-09-03T02:09:01.435Z,38.19
2022-09-03T02:10:01.440Z,38.09
2022-09-03T02:11:01.437Z,39.18
2022-09-03T02:12:01.435Z,38.62
2022-09-03T02:13:01.450Z,38.05
2022-09-03T02:14:01.407Z,39.15
2022-09-03T02:15:01.398Z,38.18
2022-09-03T02:16:01.460Z,38.32
2022-09-03T02:17:01.397Z,38.08
2022-09-03T02:18:01.408Z,37.89
2022-09-03T02:19:01.397Z,39.04
2022-09-03T02:20:01.370Z,37.97
2022-09-03T02:21:01.366Z,38.43
2022-09-03T02:22:01.356Z,37.49
2022-09-03T02:23:01.375Z,38.38
2022-09-03T02:24:01.362Z,38.24
2022-09-03T02:25:01.346Z,38.12
2022-09-03T02:26:01.335Z,37.63
2022-09-03T02:27:01.335Z,39.21
2022-09-03T02:28:01.354Z,39.90
2022-09-03T02:29:01.311Z,38.19
2022-09-03T02:30:01.315Z,38.51
2022-09-03T02:31:01.367Z,38.70
2022-09-03T02:32:01.293Z,38.71
2022-09-03T02:33:01.323Z,38.17
2022-09-03T02:34:01.278Z,39.21
2022-09-03T02:35:01.265Z,39.11
2022-09-03T02:36:01.262Z,39.84
2022-09-03T02:37:01.265Z,39.59
2022-09-03T02:38:01.263Z,37.92
2022-09-03T02:39:01.232Z,38.64
2022-09-03T02:40:02.330Z,38.67
2022-09-03T02:41:01.232Z,39.72
2022-09-03T02:42:01.221Z,39.74
2022-09-03T02:43:01.238Z,38.85
2022-09-03T02:44:01.205Z,38.13
2022-09-03T02:45:01.193Z,38.11
2022-09-03T02:46:01.230Z,39.58
2022-09-03T02:47:01.184Z,38.60
2022-09-03T02:48:01.189Z,41.60
2022-09-03T02:49:01.168Z,38.36
2022-09-03T02:50:01.149Z,38.71
2022-09-03T02:51:01.156Z,38.64
2022-09-03T02:52:01.133Z,39.00
2022-09-03T02:53:01.173Z,38.64
2022-09-03T02:54:01.122Z,38.25
2022-09-03T02:55:01.142Z,39.26
2022-09-03T02:56:01.103Z,41.40
2022-09-03T02:57:01.102Z,39.09
2022-09-03T02:58:02.121Z,37.93
2022-09-03T02:59:01.100Z,39.16
2022-09-03T03:00:01.097Z,38.77
2022-09-03T03:01:01.123Z,38.52
2022-09-03T03:02:01.430Z,38.11
2022-09-03T03:03:01.716Z,39.30
2022-09-03T03:04:01.072Z,39.62
2022-09-03T03:05:01.052Z,39.40
2022-09-03T03:06:01.045Z,38.81
2022-09-03T03:07:01.039Z,40.24
2022-09-03T03:08:01.065Z,38.94
2022-09-03T03:09:01.030Z,40.46
2022-09-03T03:10:01.018Z,38.74
2022-09-03T03:11:01.009Z,38.56
2022-09-03T03:12:00.994Z,38.37
2022-09-03T03:13:01.009Z,38.53
2022-09-03T03:14:01.000Z,38.23
2022-09-03T03:15:00.987Z,38.37
2022-09-03T03:16:00.977Z,38.46
2022-09-03T03:17:01.092Z,38.78
2022-09-03T03:18:01.021Z,39.65
2022-09-03T03:19:00.961Z,38.61
2022-09-03T03:20:00.951Z,38.89
2022-09-03T03:21:00.954Z,38.87
2022-09-03T03:22:00.938Z,38.33
2022-09-03T03:23:00.942Z,40.36
2022-09-03T03:24:00.921Z,38.36
2022-09-03T03:25:00.917Z,39.16
2022-09-03T03:26:00.916Z,39.94
2022-09-03T03:27:00.907Z,38.72
2022-09-03T03:28:00.921Z,38.56
2022-09-03T03:29:00.884Z,38.63
2022-09-03T03:30:00.875Z,41.12
2022-09-03T03:31:00.917Z,39.70
2022-09-03T03:32:00.887Z,41.04
2022-09-03T03:33:00.889Z,40.17
2022-09-03T03:34:00.860Z,40.31
2022-09-03T03:35:00.850Z,39.68
2022-09-03T03:36:00.831Z,39.74
2022-09-03T03:37:00.828Z,38.88
2022-09-03T03:38:00.849Z,39.61
2022-09-03T03:39:00.825Z,40.40
2022-09-03T03:40:00.878Z,39.57
2022-09-03T03:41:00.812Z,39.78
2022-09-03T03:42:00.810Z,39.62
2022-09-03T03:43:00.813Z,39.65
2022-09-03T03:44:00.786Z,38.86
2022-09-03T03:45:00.771Z,39.49
2022-09-03T03:46:00.842Z,40.31
2022-09-03T03:47:00.761Z,39.91
2022-09-03T03:48:00.772Z,38.78
2022-09-03T03:49:00.760Z,39.16
2022-09-03T03:50:00.745Z,39.05
2022-09-03T03:51:00.738Z,38.72
2022-09-03T03:52:00.726Z,39.88
2022-09-03T03:53:00.732Z,39.09
2022-09-03T03:54:04.789Z,39.70
2022-09-03T03:55:01.705Z,39.22
2022-09-03T03:56:00.688Z,39.12
2022-09-03T03:57:00.686Z,39.56
2022-09-03T03:58:00.701Z,39.23
2022-09-03T03:59:00.672Z,38.90
2022-09-03T04:00:00.668Z,40.88
2022-09-03T04:01:00.687Z,39.39
2022-09-03T04:02:00.711Z,40.61
2022-09-03T04:03:00.655Z,40.16
2022-09-03T04:04:00.693Z,38.72
2022-09-03T04:05:00.636Z,39.69
2022-09-03T04:06:00.624Z,39.91
2022-09-03T04:07:00.613Z,39.49
2022-09-03T04:08:00.632Z,42.18
2022-09-03T04:09:00.597Z,41.91
2022-09-03T04:10:00.628Z,40.46
2022-09-03T04:11:00.602Z,39.49
2022-09-03T04:12:00.581Z,39.15
2022-09-03T04:13:00.619Z,38.70
2022-09-03T04:14:00.568Z,39.31
2022-09-03T04:15:00.582Z,40.45
2022-09-03T04:16:00.565Z,38.64
2022-09-03T04:17:00.597Z,39.44
2022-09-03T04:18:00.562Z,39.29
2022-09-03T04:19:00.517Z,40.16
2022-09-03T04:20:00.520Z,39.12
2022-09-03T04:21:00.548Z,40.89
2022-09-03T04:22:00.505Z,40.12
2022-09-03T04:23:00.524Z,40.54
2022-09-03T04:24:00.489Z,41.04
2022-09-03T04:25:00.494Z,39.36
2022-09-03T04:26:00.493Z,42.04
2022-09-03T04:27:00.484Z,39.79
2022-09-03T04:28:00.506Z,40.87
2022-09-03T04:29:00.459Z,40.36
2022-09-03T04:30:00.445Z,40.52
2022-09-03T04:31:00.475Z,39.43
2022-09-03T04:32:00.443Z,39.70
2022-09-03T04:33:00.469Z,39.79
2022-09-03T04:34:00.420Z,39.38
2022-09-03T04:35:00.417Z,39.91
2022-09-03T04:36:00.409Z,40.23
2022-09-03T04:37:00.416Z,41.46
2022-09-03T04:38:00.422Z,41.67
2022-09-03T04:39:00.393Z,40.39
2022-09-03T04:40:00.505Z,40.75
2022-09-03T04:41:00.367Z,39.36
2022-09-03T04:42:00.374Z,40.56
2022-09-03T04:43:00.379Z,39.82
2022-09-03T04:44:00.369Z,40.90
2022-09-03T04:45:00.343Z,41.31
2022-09-03T04:46:00.427Z,38.93
2022-09-03T04:47:00.332Z,39.90
2022-09-03T04:48:00.329Z,39.72
2022-09-03T04:49:00.335Z,39.69
2022-09-03T04:50:00.362Z,42.83
2022-09-03T04:51:00.315Z,40.16
2022-09-03T04:52:00.314Z,39.66
2022-09-03T04:53:02.588Z,41.97
2022-09-03T04:54:01.344Z,41.22
2022-09-03T04:55:00.284Z,41.86
2022-09-03T04:56:00.292Z,40.52
2022-09-03T04:57:00.274Z,39.02
2022-09-03T04:58:00.264Z,40.14
2022-09-03T04:59:00.289Z,42.46
2022-09-03T05:00:00.257Z,40.90
2022-09-03T05:01:00.346Z,39.44
2022-09-03T05:02:00.301Z,40.21
2022-09-03T05:03:00.222Z,39.96
2022-09-03T05:04:00.240Z,40.88
2022-09-03T05:05:00.309Z,39.90
2022-09-03T05:06:00.201Z,40.25
2022-09-03T05:07:00.188Z,40.19
2022-09-03T05:08:00.228Z,39.54
2022-09-03T05:09:00.193Z,40.12
2022-09-03T05:10:00.179Z,40.79
2022-09-03T05:11:00.177Z,39.41
2022-09-03T05:12:00.146Z,42.17
2022-09-03T05:13:00.143Z,38.39
2022-09-03T05:14:00.161Z,46.18
2022-09-03T05:15:00.134Z,40.78
2022-09-03T05:16:00.235Z,40.00
2022-09-03T05:17:00.288Z,41.10
2022-09-03T05:18:00.175Z,41.02
2022-09-03T05:19:00.122Z,40.80
2022-09-03T05:20:00.117Z,40.73
2022-09-03T05:21:01.108Z,38.95
2022-09-03T05:22:00.086Z,39.30
2022-09-03T05:23:00.080Z,38.14
2022-09-03T05:24:00.093Z,38.19
2022-09-03T05:25:00.082Z,40.28
2022-09-03T05:26:00.116Z,39.42
2022-09-03T05:27:00.045Z,39.74
2022-09-03T05:28:00.036Z,41.62
2022-09-03T05:29:00.093Z,39.76
2022-09-03T05:30:00.049Z,39.98
2022-09-03T05:31:00.026Z,41.51
2022-09-03T05:32:00.120Z,40.84
2022-09-03T05:33:00.094Z,41.84
2022-09-03T05:34:00.028Z,41.95
2022-09-03T05:35:00.004Z,42.28
2022-09-03T05:35:59.993Z,43.53
2022-09-03T05:36:59.979Z,41.93
2022-09-03T05:37:59.978Z,40.73
2022-09-03T05:38:59.994Z,40.88
2022-09-03T05:40:00.021Z,41.96
2022-09-03T05:40:59.961Z,38.86
2022-09-03T05:41:59.958Z,40.50
2022-09-03T05:42:59.950Z,40.59
2022-09-03T05:43:59.937Z,39.63
2022-09-03T05:44:59.941Z,38.74
2022-09-03T05:45:59.972Z,40.55
2022-09-03T05:46:59.946Z,39.94
2022-09-03T05:47:59.945Z,39.87
2022-09-03T05:48:59.930Z,39.60
2022-09-03T05:49:59.892Z,41.66
2022-09-03T05:50:59.898Z,40.41
2022-09-03T05:51:59.863Z,39.85
2022-09-03T05:52:59.876Z,40.14
2022-09-03T05:53:59.940Z,40.36
2022-09-03T05:54:59.850Z,43.67
2022-09-03T05:55:59.847Z,42.57
2022-09-03T05:57:00.684Z,39.23
2022-09-03T05:57:59.824Z,41.74
2022-09-03T05:58:59.861Z,41.22
2022-09-03T05:59:59.828Z,39.20
2022-09-03T06:00:59.829Z,42.08
2022-09-03T06:02:00.491Z,41.16
2022-09-03T06:03:00.892Z,40.52
2022-09-03T06:03:59.806Z,40.77
2022-09-03T06:04:59.783Z,38.57
2022-09-03T06:05:59.773Z,40.86
2022-09-03T06:06:59.763Z,38.74
2022-09-03T06:07:59.755Z,38.82
2022-09-03T06:08:59.777Z,39.42
2022-09-03T06:09:59.767Z,46.00
2022-09-03T06:10:59.745Z,49.12
2022-09-03T06:12:00.119Z,41.66
2022-09-03T06:12:59.732Z,39.05
2022-09-03T06:13:59.738Z,40.59
2022-09-03T06:14:59.705Z,40.41
2022-09-03T06:15:59.735Z,37.67
2022-09-03T06:16:59.714Z,38.64
2022-09-03T06:17:59.691Z,40.67
2022-09-03T06:18:59.717Z,40.08
2022-09-03T06:19:59.682Z,39.18
2022-09-03T06:20:59.658Z,38.53
2022-09-03T06:21:59.669Z,39.53
2022-09-03T06:22:59.659Z,40.28
2022-09-03T06:24:00.294Z,41.28
2022-09-03T06:24:59.964Z,42.33
2022-09-03T06:26:04.461Z,38.98
2022-09-03T06:27:01.634Z,39.99
2022-09-03T06:27:59.828Z,40.66
2022-09-03T06:28:59.633Z,39.02
2022-09-03T06:29:59.626Z,37.53
2022-09-03T06:30:59.599Z,39.97
2022-09-03T06:31:59.663Z,40.35
2022-09-03T06:32:59.586Z,42.56
2022-09-03T06:34:03.826Z,39.37
2022-09-03T06:35:00.584Z,40.36
2022-09-03T06:35:59.557Z,40.16
2022-09-03T06:36:59.575Z,37.74
2022-09-03T06:37:59.561Z,40.15
2022-09-03T06:38:59.596Z,40.10
2022-09-03T06:39:59.596Z,40.88
2022-09-03T06:40:59.534Z,41.04
2022-09-03T06:41:59.535Z,38.19
2022-09-03T06:42:59.521Z,39.43
2022-09-03T06:43:59.533Z,40.54
2022-09-03T06:44:59.514Z,39.06
2022-09-03T06:45:59.535Z,38.90
2022-09-03T06:46:59.494Z,41.95
2022-09-03T06:47:59.484Z,42.34
2022-09-03T06:48:59.503Z,42.23
2022-09-03T06:49:59.475Z,38.63
2022-09-03T06:50:59.478Z,39.10
2022-09-03T06:51:59.470Z,38.13
2022-09-03T06:52:59.447Z,40.45
2022-09-03T06:53:59.466Z,40.91
2022-09-03T06:54:59.453Z,39.31
2022-09-03T06:55:59.442Z,40.19
2022-09-03T06:57:00.249Z,39.55
2022-09-03T06:57:59.419Z,41.83
2022-09-03T06:58:59.428Z,40.72
2022-09-03T06:59:59.419Z,40.22
2022-09-03T07:00:59.447Z,39.69
2022-09-03T07:01:59.586Z,40.72
2022-09-03T07:02:59.382Z,37.80
2022-09-03T07:03:59.403Z,38.03
2022-09-03T07:04:59.371Z,44.78
2022-09-03T07:05:59.367Z,38.32
2022-09-03T07:06:59.369Z,38.56
2022-09-03T07:07:59.338Z,40.20
2022-09-03T07:08:59.357Z,38.21
2022-09-03T07:09:59.344Z,38.91
2022-09-03T07:10:59.329Z,40.50
2022-09-03T07:11:59.328Z,40.70
2022-09-03T07:12:59.315Z,41.89
2022-09-03T07:13:59.332Z,40.55
2022-09-03T07:14:59.308Z,39.73
2022-09-03T07:15:59.328Z,38.89
2022-09-03T07:16:59.302Z,40.90
2022-09-03T07:17:59.289Z,39.24
2022-09-03T07:18:59.287Z,37.71
2022-09-03T07:19:59.272Z,38.78
2022-09-03T07:20:59.259Z,38.23
2022-09-03T07:21:59.249Z,39.08
2022-09-03T07:22:59.240Z,40.67
2022-09-03T07:23:59.253Z,41.94
2022-09-03T07:24:59.230Z,38.85
2022-09-03T07:25:59.232Z,39.13
2022-09-03T07:26:59.222Z,40.42
2022-09-03T07:27:59.208Z,38.54
2022-09-03T07:28:59.222Z,40.95
2022-09-03T07:29:59.189Z,40.09
2022-09-03T07:30:59.195Z,38.45
2022-09-03T07:31:59.245Z,39.91
2022-09-03T07:32:59.164Z,38.16
2022-09-03T07:33:59.184Z,39.52
2022-09-03T07:35:00.181Z,39.28
2022-09-03T07:35:59.148Z,40.22
2022-09-03T07:36:59.153Z,37.55
2022-09-03T07:37:59.150Z,38.20
2022-09-03T07:38:59.167Z,38.09
2022-09-03T07:39:59.194Z,40.27
2022-09-03T07:40:59.119Z,39.81
2022-09-03T07:41:59.113Z,40.18
2022-09-03T07:42:59.107Z,40.86
2022-09-03T07:43:59.125Z,38.57
2022-09-03T07:44:59.099Z,39.95
2022-09-03T07:45:59.096Z,38.81
2022-09-03T07:46:59.148Z,38.99
2022-09-03T07:47:59.081Z,38.60
2022-09-03T07:48:59.086Z,38.27
2022-09-03T07:49:59.072Z,38.06
2022-09-03T07:50:59.052Z,39.41
2022-09-03T07:51:59.048Z,38.87
2022-09-03T07:52:59.042Z,40.04
2022-09-03T07:53:59.068Z,39.09
2022-09-03T07:54:59.125Z,39.08
2022-09-03T07:55:59.022Z,39.08
2022-09-03T07:56:59.035Z,39.12
2022-09-03T07:57:59.003Z,38.58
2022-09-03T07:58:59.013Z,38.21
2022-09-03T07:59:59.012Z,40.93
2022-09-03T08:00:59.007Z,40.10
2022-09-03T08:01:58.975Z,39.24
2022-09-03T08:02:58.962Z,40.36
2022-09-03T08:03:59.034Z,40.78
2022-09-03T08:04:59.001Z,41.00
2022-09-03T08:05:58.955Z,39.61
2022-09-03T08:06:58.952Z,40.54
2022-09-03T08:07:58.941Z,39.29
2022-09-03T08:09:04.203Z,39.57
2022-09-03T08:09:59.911Z,38.96
2022-09-03T08:10:58.910Z,37.63
2022-09-03T08:11:58.913Z,39.74
2022-09-03T08:12:58.901Z,40.36
2022-09-03T08:13:58.905Z,38.22
2022-09-03T08:14:58.879Z,38.42
2022-09-03T08:15:58.939Z,40.65
2022-09-03T08:16:58.872Z,39.93
2022-09-03T08:18:03.563Z,38.89
2022-09-03T08:18:59.868Z,39.50
2022-09-03T08:19:58.864Z,41.13
2022-09-03T08:20:58.840Z,40.10
2022-09-03T08:21:58.851Z,39.78
2022-09-03T08:22:58.813Z,40.86
2022-09-03T08:23:58.871Z,38.95
2022-09-03T08:24:58.810Z,38.62
2022-09-03T08:25:58.823Z,39.64
2022-09-03T08:26:58.795Z,42.82
2022-09-03T08:27:58.794Z,39.70
2022-09-03T08:28:58.805Z,39.85
2022-09-03T08:29:58.841Z,39.97
2022-09-03T08:30:58.816Z,38.88
2022-09-03T08:31:59.725Z,39.69
2022-09-03T08:32:58.756Z,39.47
2022-09-03T08:33:58.751Z,40.16
2022-09-03T08:34:58.747Z,40.11
2022-09-03T08:35:58.731Z,39.64
2022-09-03T08:36:58.729Z,38.70
2022-09-03T08:37:58.756Z,37.61
2022-09-03T08:38:58.726Z,39.31
2022-09-03T08:39:58.751Z,40.18
2022-09-03T08:40:58.690Z,41.27
2022-09-03T08:41:58.690Z,40.27
2022-09-03T08:42:58.688Z,39.27
2022-09-03T08:43:58.693Z,41.11
2022-09-03T08:44:58.702Z,41.04
2022-09-03T08:45:58.688Z,41.61
2022-09-03T08:46:58.683Z,40.30
2022-09-03T08:47:58.636Z,41.38
2022-09-03T08:48:58.646Z,40.55
2022-09-03T08:49:58.617Z,39.67
2022-09-03T08:50:58.613Z,39.33
2022-09-03T08:51:58.604Z,38.66
2022-09-03T08:52:58.595Z,39.51
2022-09-03T08:53:58.603Z,39.99
2022-09-03T08:54:58.577Z,38.62
2022-09-03T08:55:59.583Z,39.63
2022-09-03T08:56:58.632Z,39.28
2022-09-03T08:57:58.569Z,38.43
2022-09-03T08:58:58.574Z,40.34
2022-09-03T08:59:58.550Z,38.96
2022-09-03T09:00:58.540Z,37.43
2022-09-03T09:01:58.644Z,39.71
2022-09-03T09:02:58.557Z,39.14
2022-09-03T09:03:58.544Z,37.18
2022-09-03T09:04:58.543Z,39.50
2022-09-03T09:05:58.517Z,39.48
2022-09-03T09:06:58.506Z,39.48
2022-09-03T09:07:58.510Z,40.11
2022-09-03T09:08:58.505Z,40.31
2022-09-03T09:09:58.479Z,40.28
2022-09-03T09:10:58.476Z,40.68
2022-09-03T09:11:58.467Z,40.53
2022-09-03T09:12:58.494Z,40.97
2022-09-03T09:13:58.471Z,39.81
2022-09-03T09:14:58.454Z,40.13
2022-09-03T09:15:58.476Z,39.73
2022-09-03T09:16:58.426Z,39.34
2022-09-03T09:17:58.440Z,39.15
2022-09-03T09:18:58.442Z,40.83
2022-09-03T09:19:58.394Z,40.54
2022-09-03T09:20:58.402Z,38.75
2022-09-03T09:21:58.393Z,38.00
2022-09-03T09:22:58.392Z,39.28
2022-09-03T09:23:58.398Z,37.71
2022-09-03T09:24:58.367Z,35.32
2022-09-03T09:25:58.377Z,38.17
2022-09-03T09:26:58.371Z,38.52
2022-09-03T09:27:58.355Z,38.96
2022-09-03T09:28:58.359Z,37.99
2022-09-03T09:29:58.337Z,38.41
2022-09-03T09:30:58.428Z,38.53
2022-09-03T09:31:58.320Z,39.84
2022-09-03T09:32:58.324Z,36.29
2022-09-03T09:34:00.438Z,39.25
2022-09-03T09:34:58.319Z,35.78
2022-09-03T09:35:58.290Z,37.84
2022-09-03T09:36:58.286Z,36.41
2022-09-03T09:37:58.309Z,37.73
2022-09-03T09:38:58.327Z,35.77
2022-09-03T09:39:58.344Z,38.46
2022-09-03T09:40:58.272Z,36.78
2022-09-03T09:41:58.258Z,36.16
2022-09-03T09:42:58.311Z,38.13
2022-09-03T09:43:58.266Z,36.33
2022-09-03T09:44:58.236Z,36.54
2022-09-03T09:45:58.307Z,37.83
2022-09-03T09:46:58.272Z,35.85
2022-09-03T09:47:58.217Z,37.62
2022-09-03T09:48:58.260Z,36.54
2022-09-03T09:49:58.212Z,35.42
2022-09-03T09:50:58.221Z,34.13
2022-09-03T09:51:58.183Z,34.69
2022-09-03T09:52:59.219Z,37.93
2022-09-03T09:53:59.192Z,34.62
2022-09-03T09:54:58.169Z,36.36
2022-09-03T09:55:58.208Z,35.59
2022-09-03T09:56:58.166Z,35.84
2022-09-03T09:57:58.156Z,36.27
2022-09-03T09:58:58.164Z,37.07
2022-09-03T09:59:58.155Z,36.81
2022-09-03T10:00:58.126Z,36.76
2022-09-03T10:01:58.193Z,35.66
2022-09-03T10:02:58.149Z,35.70
2022-09-03T10:03:58.143Z,35.85
2022-09-03T10:04:58.103Z,35.46
2022-09-03T10:05:58.100Z,34.63
2022-09-03T10:06:58.093Z,38.81
2022-09-03T10:07:58.088Z,34.76
2022-09-03T10:08:58.088Z,35.28
2022-09-03T10:09:58.082Z,35.57
2022-09-03T10:10:58.063Z,37.01
2022-09-03T10:11:58.046Z,37.42
2022-09-03T10:12:58.055Z,34.36
2022-09-03T10:13:58.057Z,33.54
2022-09-03T10:14:58.024Z,33.74
2022-09-03T10:15:58.074Z,35.01
2022-09-03T10:16:58.030Z,42.25
2022-09-03T10:17:58.007Z,35.53
2022-09-03T10:18:58.007Z,36.27
2022-09-03T10:19:57.989Z,33.68
2022-09-03T10:20:57.990Z,33.87
2022-09-03T10:21:57.987Z,36.45
2022-09-03T10:22:57.975Z,34.69
2022-09-03T10:23:57.985Z,34.61
2022-09-03T10:24:57.946Z,35.37
2022-09-03T10:25:57.966Z,35.60
2022-09-03T10:26:57.947Z,35.03
2022-09-03T10:27:59.914Z,34.76
2022-09-03T10:28:57.963Z,36.48
2022-09-03T10:29:57.932Z,35.28
2022-09-03T10:30:57.930Z,34.66
2022-09-03T10:31:57.906Z,36.19
2022-09-03T10:32:57.921Z,36.58
2022-09-03T10:33:58.925Z,37.12
2022-09-03T10:34:57.889Z,34.94
2022-09-03T10:35:57.883Z,35.33
2022-09-03T10:36:57.871Z,34.20
2022-09-03T10:37:57.881Z,34.48
2022-09-03T10:38:57.895Z,37.76
2022-09-03T10:39:57.869Z,38.09
2022-09-03T10:40:57.846Z,33.36
2022-09-03T10:41:57.850Z,35.13
2022-09-03T10:42:57.831Z,34.55
2022-09-03T10:43:57.823Z,36.68
2022-09-03T10:44:57.833Z,30.91
2022-09-03T10:45:57.838Z,34.99
2022-09-03T10:46:57.811Z,32.46
2022-09-03T10:47:58.701Z,35.30
2022-09-03T10:48:57.783Z,33.75
2022-09-03T10:49:57.796Z,37.91
2022-09-03T10:50:57.774Z,36.70
2022-09-03T10:51:58.675Z,34.78
2022-09-03T10:52:57.762Z,35.55
2022-09-03T10:53:57.801Z,36.92
2022-09-03T10:54:57.794Z,38.06
2022-09-03T10:55:58.656Z,40.38
2022-09-03T10:56:57.794Z,38.78
2022-09-03T10:57:57.722Z,38.89
2022-09-03T10:58:57.729Z,36.19
2022-09-03T10:59:57.749Z,36.49
2022-09-03T11:00:57.706Z,38.10
2022-09-03T11:01:57.699Z,34.29
2022-09-03T11:02:57.755Z,34.41
2022-09-03T11:03:57.681Z,35.41
2022-09-03T11:04:57.692Z,38.58
2022-09-03T11:05:57.677Z,48.09
2022-09-03T11:06:57.664Z,36.85
2022-09-03T11:07:57.663Z,36.08
2022-09-03T11:08:57.652Z,34.77
2022-09-03T11:09:57.662Z,37.17
2022-09-03T11:10:57.630Z,34.62
2022-09-03T11:11:57.630Z,38.36
2022-09-03T11:12:57.630Z,36.78
2022-09-03T11:13:57.625Z,34.77
2022-09-03T11:14:57.681Z,34.17
2022-09-03T11:15:57.644Z,35.91
2022-09-03T11:16:57.647Z,36.99
2022-09-03T11:17:57.592Z,38.26
2022-09-03T11:18:58.516Z,36.84
2022-09-03T11:19:57.607Z,37.68
2022-09-03T11:20:57.782Z,37.24
2022-09-03T11:21:57.628Z,36.80
2022-09-03T11:22:58.177Z,37.61
2022-09-03T11:23:57.654Z,38.10
2022-09-03T11:24:57.534Z,37.35
2022-09-03T11:25:57.530Z,36.98
2022-09-03T11:26:57.571Z,37.29
2022-09-03T11:27:57.523Z,38.43
2022-09-03T11:28:57.551Z,36.39
2022-09-03T11:29:57.524Z,37.57
2022-09-03T11:30:57.590Z,34.43
2022-09-03T11:31:57.505Z,36.39
2022-09-03T11:32:57.499Z,36.85
2022-09-03T11:33:57.595Z,36.08
2022-09-03T11:34:58.663Z,38.44
2022-09-03T11:35:57.475Z,35.51
2022-09-03T11:36:57.623Z,37.41
2022-09-03T11:37:57.472Z,39.75
2022-09-03T11:38:57.463Z,40.20
2022-09-03T11:39:57.465Z,37.47
2022-09-03T11:40:57.448Z,37.65
2022-09-03T11:41:57.521Z,36.60
2022-09-03T11:42:57.427Z,38.43
2022-09-03T11:44:00.109Z,36.35
2022-09-03T11:44:59.426Z,35.80
2022-09-03T11:45:57.449Z,37.70
2022-09-03T11:46:57.398Z,37.38
2022-09-03T11:47:57.400Z,38.31
2022-09-03T11:48:57.410Z,42.89
2022-09-03T11:49:57.386Z,38.01
2022-09-03T11:50:57.378Z,41.61
2022-09-03T11:51:57.370Z,41.95
2022-09-03T11:52:57.420Z,37.25
2022-09-03T11:53:57.375Z,38.27
2022-09-03T11:54:57.347Z,39.58
2022-09-03T11:55:57.356Z,36.18
2022-09-03T11:56:57.343Z,38.00
2022-09-03T11:57:57.323Z,37.46
2022-09-03T11:58:57.340Z,38.99
2022-09-03T11:59:57.348Z,39.58
2022-09-03T12:00:57.317Z,39.20
2022-09-03T12:01:57.300Z,45.57
2022-09-03T12:02:59.077Z,48.78
2022-09-03T12:03:58.299Z,47.97
2022-09-03T12:04:57.336Z,44.32
2022-09-03T12:05:57.285Z,45.48
2022-09-03T12:06:57.275Z,40.73
2022-09-03T12:07:57.312Z,49.34
2022-09-03T12:08:57.268Z,46.79
2022-09-03T12:09:58.166Z,49.35
2022-09-03T12:10:57.249Z,45.14
2022-09-03T12:11:57.242Z,42.79
2022-09-03T12:12:57.256Z,42.02
2022-09-03T12:13:57.234Z,40.08
2022-09-03T12:14:57.251Z,40.67
2022-09-03T12:15:57.245Z,38.12
2022-09-03T12:16:57.203Z,38.62
2022-09-03T12:17:57.202Z,38.56
2022-09-03T12:18:57.201Z,40.14
2022-09-03T12:19:57.167Z,38.65
2022-09-03T12:20:57.174Z,41.14
2022-09-03T12:21:57.183Z,41.12
2022-09-03T12:22:57.208Z,41.50
2022-09-03T12:23:58.289Z,41.33
2022-09-03T12:24:57.174Z,39.81
2022-09-03T12:25:57.137Z,40.57
2022-09-03T12:26:57.128Z,40.81
2022-09-03T12:27:57.129Z,42.88
2022-09-03T12:28:57.197Z,44.71
2022-09-03T12:29:57.105Z,43.64
2022-09-03T12:30:57.186Z,43.85
2022-09-03T12:31:57.083Z,42.44
2022-09-03T12:32:57.094Z,40.73
2022-09-03T12:33:57.103Z,41.08
2022-09-03T12:34:57.074Z,43.26
2022-09-03T12:35:58.893Z,41.32
2022-09-03T12:36:59.692Z,42.39
2022-09-03T12:38:08.831Z,42.56
2022-09-03T12:39:11.358Z,42.54
2022-09-03T12:40:07.998Z,39.84
2022-09-03T12:41:28.842Z,41.54
2022-09-03T12:41:59.027Z,40.81
2022-09-03T12:43:36.995Z,41.47
2022-09-03T12:43:59.054Z,40.91
2022-09-03T12:44:57.020Z,39.63
2022-09-03T12:46:12.487Z,42.47
2022-09-03T12:47:59.047Z,51.61
2022-09-03T12:49:58.967Z,51.64
2022-09-03T12:50:57.984Z,51.19
2022-09-03T12:52:00.687Z,52.89
2022-09-03T12:52:57.972Z,46.03
2022-09-03T12:53:56.967Z,44.74